0609 UTC 01 May 2016 found at http://aviationweather.gov/adds/metars/
 
METAR text: KMNH 010556Z AUTO 34015KT 4SM BR BKN003 OVC007 M02/M03 A3017 RMK AO2
Conditions at: KMNH (MONUMENT/ELBERT , CO, US) observed 0556 UTC 01 May 2016
Temperature: -2.0°C (28°F)
Dewpoint: -3.0°C (27°F) [RH = 93%]
Pressure (altimeter): 30.17 inches Hg (1021.8 mb)
Winds: from the NNW (340 degrees) at 17 MPH (15 knots; 7.8 m/s)
Visibility: 4 miles (6 km)
Ceiling: 300 feet AGL
Clouds: broken clouds at 300 feet AGL
overcast cloud deck at 700 feet AGL
Weather: BR  (mist)

METAR text: KMNH 010536Z AUTO 35018G24KT 5SM BR BKN003 OVC007 M02/M03 A3017 RMK AO2
Conditions at: KMNH (MONUMENT/ELBERT , CO, US) observed 0536 UTC 01 May 2016
Temperature: -2.0°C (28°F)
Dewpoint: -3.0°C (27°F) [RH = 93%]
Pressure (altimeter): 30.17 inches Hg (1021.8 mb)
Winds: from the N (350 degrees) at 21 MPH (18 knots; 9.4 m/sgusting to 28 MPH (24 knots; 12.5 m/s)
Visibility: 5 miles (8 km)
Ceiling: 300 feet AGL
Clouds: broken clouds at 300 feet AGL
overcast cloud deck at 700 feet AGL
Weather: BR  (mist)

METAR text: KMNH 010516Z AUTO 34016G22KT 5SM -SN OVC003 M02/M03 A3017 RMK AO2
Conditions at: KMNH (MONUMENT/ELBERT , CO, US) observed 0516 UTC 01 May 2016
Temperature: -2.0°C (28°F)
Dewpoint: -3.0°C (27°F) [RH = 93%]
Pressure (altimeter): 30.17 inches Hg (1021.8 mb)
Winds: from the NNW (340 degrees) at 18 MPH (16 knots; 8.3 m/sgusting to 25 MPH (22 knots; 11.4 m/s)
Visibility: 5 miles (8 km)
Ceiling: 300 feet AGL
Clouds: overcast cloud deck at 300 feet AGL
Weather: -SN  (light snow)

METAR text: KMNH 010456Z AUTO 35016G19KT 5SM -SN BKN003 OVC008 M02/M03 A3017 RMK AO2
Conditions at: KMNH (MONUMENT/ELBERT , CO, US) observed 0456 UTC 01 May 2016
Temperature: -2.0°C (28°F)
Dewpoint: -3.0°C (27°F) [RH = 93%]
Pressure (altimeter): 30.17 inches Hg (1021.8 mb)
Winds: from the N (350 degrees) at 18 MPH (16 knots; 8.3 m/sgusting to 22 MPH (19 knots; 9.9 m/s)
Visibility: 5 miles (8 km)
Ceiling: 300 feet AGL
Clouds: broken clouds at 300 feet AGL
overcast cloud deck at 800 feet AGL
Weather: -SN  (light snow)

METAR text: KMNH 010436Z AUTO 35015KT 10SM BKN003 OVC007 M02/M03 A3017 RMK AO2
Conditions at: KMNH (MONUMENT/ELBERT , CO, US) observed 0436 UTC 01 May 2016
Temperature: -2.0°C (28°F)
Dewpoint: -3.0°C (27°F) [RH = 93%]
Pressure (altimeter): 30.17 inches Hg (1021.8 mb)
Winds: from the N (350 degrees) at 17 MPH (15 knots; 7.8 m/s)
Visibility: 10 or more miles (16+ km)
Ceiling: 300 feet AGL
Clouds: broken clouds at 300 feet AGL
overcast cloud deck at 700 feet AGL
Weather: automated observation with no human augmentation;
there may or may not be significant weather present at this time

METAR text: KMNH 010416Z AUTO 35014G18KT 10SM BKN003 OVC008 M02/M03 A3016 RMK AO2
Conditions at: KMNH (MONUMENT/ELBERT , CO, US) observed 0416 UTC 01 May 2016
Temperature: -2.0°C (28°F)
Dewpoint: -3.0°C (27°F) [RH = 93%]
Pressure (altimeter): 30.16 inches Hg (1021.4 mb)
Winds: from the N (350 degrees) at 16 MPH (14 knots; 7.3 m/sgusting to 21 MPH (18 knots; 9.4 m/s)
Visibility: 10 or more miles (16+ km)
Ceiling: 300 feet AGL
Clouds: broken clouds at 300 feet AGL
overcast cloud deck at 800 feet AGL
Weather: automated observation with no human augmentation;
there may or may not be significant weather present at this time

METAR text: KMNH 010356Z AUTO 36013G20KT 5SM -SN BKN003 OVC008 M02/M03 A3016 RMK AO2
Conditions at: KMNH (MONUMENT/ELBERT , CO, US) observed 0356 UTC 01 May 2016
Temperature: -2.0°C (28°F)
Dewpoint: -3.0°C (27°F) [RH = 93%]
Pressure (altimeter): 30.16 inches Hg (1021.4 mb)
Winds: from the N (360 degrees) at 15 MPH (13 knots; 6.8 m/sgusting to 23 MPH (20 knots; 10.4 m/s)
Visibility: 5 miles (8 km)
Ceiling: 300 feet AGL
Clouds: broken clouds at 300 feet AGL
overcast cloud deck at 800 feet AGL
Weather: -SN  (light snow)

METAR text: KMNH 010336Z AUTO 36016G19KT 1 1/4SM -SN BKN005 OVC008 M02/M03 A3014 RMK AO2
Conditions at: KMNH (MONUMENT/ELBERT , CO, US) observed 0336 UTC 01 May 2016
Temperature: -2.0°C (28°F)
Dewpoint: -3.0°C (27°F) [RH = 93%]
Pressure (altimeter): 30.14 inches Hg (1020.7 mb)
Winds: from the N (360 degrees) at 18 MPH (16 knots; 8.3 m/sgusting to 22 MPH (19 knots; 9.9 m/s)
Visibility: 1.25 miles (2.01 km)
Ceiling: 500 feet AGL
Clouds: broken clouds at 500 feet AGL
overcast cloud deck at 800 feet AGL
Weather: -SN  (light snow)

METAR text: KMNH 010316Z AUTO 35018G22KT 3SM -SN BKN005 OVC008 M02/M03 A3014 RMK AO2
Conditions at: KMNH (MONUMENT/ELBERT , CO, US) observed 0316 UTC 01 May 2016
Temperature: -2.0°C (28°F)
Dewpoint: -3.0°C (27°F) [RH = 93%]
Pressure (altimeter): 30.14 inches Hg (1020.7 mb)
Winds: from the N (350 degrees) at 21 MPH (18 knots; 9.4 m/sgusting to 25 MPH (22 knots; 11.4 m/s)
Visibility: 3 miles (5 km)
Ceiling: 500 feet AGL
Clouds: broken clouds at 500 feet AGL
overcast cloud deck at 800 feet AGL
Weather: -SN  (light snow)

METAR text: KMNH 010255Z AUTO 35014KT 2 1/2SM -SN OVC005 M02/M03 A3012 RMK AO2
Conditions at: KMNH (MONUMENT/ELBERT , CO, US) observed 0255 UTC 01 May 2016
Temperature: -2.0°C (28°F)
Dewpoint: -3.0°C (27°F) [RH = 93%]
Pressure (altimeter): 30.12 inches Hg (1020.1 mb)
Winds: from the N (350 degrees) at 16 MPH (14 knots; 7.3 m/s)
Visibility: 2.50 miles (4.02 km)
Ceiling: 500 feet AGL
Clouds: overcast cloud deck at 500 feet AGL
Weather: -SN  (light snow)

METAR text: KMNH 010236Z AUTO 36016KT 4SM -SN BKN007 OVC012 M02/M03 A3011 RMK AO2
Conditions at: KMNH (MONUMENT/ELBERT , CO, US) observed 0236 UTC 01 May 2016
Temperature: -2.0°C (28°F)
Dewpoint: -3.0°C (27°F) [RH = 93%]
Pressure (altimeter): 30.11 inches Hg (1019.7 mb)
Winds: from the N (360 degrees) at 18 MPH (16 knots; 8.3 m/s)
Visibility: 4 miles (6 km)
Ceiling: 700 feet AGL
Clouds: broken clouds at 700 feet AGL
overcast cloud deck at 1200 feet AGL
Weather: -SN  (light snow)

METAR text: KMNH 010216Z AUTO 36017G25KT 3SM -SN BKN006 OVC012 M02/M03 A3011 RMK AO2
Conditions at: KMNH (MONUMENT/ELBERT , CO, US) observed 0216 UTC 01 May 2016
Temperature: -2.0°C (28°F)
Dewpoint: -3.0°C (27°F) [RH = 93%]
Pressure (altimeter): 30.11 inches Hg (1019.7 mb)
Winds: from the N (360 degrees) at 20 MPH (17 knots; 8.8 m/sgusting to 29 MPH (25 knots; 13.0 m/s)
Visibility: 3 miles (5 km)
Ceiling: 600 feet AGL
Clouds: broken clouds at 600 feet AGL
overcast cloud deck at 1200 feet AGL
Weather: -SN  (light snow)

METAR text: KMNH 010155Z AUTO 34018G22KT 7SM OVC006 M02/M03 A3009 RMK AO2
Conditions at: KMNH (MONUMENT/ELBERT , CO, US) observed 0155 UTC 01 May 2016
Temperature: -2.0°C (28°F)
Dewpoint: -3.0°C (27°F) [RH = 93%]
Pressure (altimeter): 30.09 inches Hg (1019.0 mb)
Winds: from the NNW (340 degrees) at 21 MPH (18 knots; 9.4 m/sgusting to 25 MPH (22 knots; 11.4 m/s)
Visibility: 7 miles (11 km)
Ceiling: 600 feet AGL
Clouds: overcast cloud deck at 600 feet AGL
Weather: automated observation with no human augmentation;
there may or may not be significant weather present at this time

METAR text: KMNH 010135Z AUTO 35015G23KT 4SM BR OVC006 M02/M03 A3009 RMK AO2
Conditions at: KMNH (MONUMENT/ELBERT , CO, US) observed 0135 UTC 01 May 2016
Temperature: -2.0°C (28°F)
Dewpoint: -3.0°C (27°F) [RH = 93%]
Pressure (altimeter): 30.09 inches Hg (1019.0 mb)
Winds: from the N (350 degrees) at 17 MPH (15 knots; 7.8 m/sgusting to 26 MPH (23 knots; 12.0 m/s)
Visibility: 4 miles (6 km)
Ceiling: 600 feet AGL
Clouds: overcast cloud deck at 600 feet AGL
Weather: BR  (mist)

METAR text: KMNH 010116Z AUTO 36019G26KT 3SM BR OVC006 M02/M03 A3008 RMK AO2
Conditions at: KMNH (MONUMENT/ELBERT , CO, US) observed 0116 UTC 01 May 2016
Temperature: -2.0°C (28°F)
Dewpoint: -3.0°C (27°F) [RH = 93%]
Pressure (altimeter): 30.08 inches Hg (1018.7 mb)
Winds: from the N (360 degrees) at 22 MPH (19 knots; 9.9 m/sgusting to 30 MPH (26 knots; 13.5 m/s)
Visibility: 3 miles (5 km)
Ceiling: 600 feet AGL
Clouds: overcast cloud deck at 600 feet AGL
Weather: BR  (mist)

METAR text: KMNH 010056Z AUTO 36021G25KT 4SM BR OVC006 M02/M03 A3007 RMK AO2
Conditions at: KMNH (MONUMENT/ELBERT , CO, US) observed 0056 UTC 01 May 2016
Temperature: -2.0°C (28°F)
Dewpoint: -3.0°C (27°F) [RH = 93%]
Pressure (altimeter): 30.07 inches Hg (1018.4 mb)
Winds: from the N (360 degrees) at 24 MPH (21 knots; 10.9 m/sgusting to 29 MPH (25 knots; 13.0 m/s)
Visibility: 4 miles (6 km)
Ceiling: 600 feet AGL
Clouds: overcast cloud deck at 600 feet AGL
Weather: BR  (mist)

METAR text: KMNH 010035Z AUTO 36020G27KT 3SM BR BKN006 OVC011 M02/M03 A3007 RMK AO2
Conditions at: KMNH (MONUMENT/ELBERT , CO, US) observed 0035 UTC 01 May 2016
Temperature: -2.0°C (28°F)
Dewpoint: -3.0°C (27°F) [RH = 93%]
Pressure (altimeter): 30.07 inches Hg (1018.4 mb)
Winds: from the N (360 degrees) at 23 MPH (20 knots; 10.4 m/sgusting to 31 MPH (27 knots; 14.0 m/s)
Visibility: 3 miles (5 km)
Ceiling: 600 feet AGL
Clouds: broken clouds at 600 feet AGL
overcast cloud deck at 1100 feet AGL
Weather: BR  (mist)

METAR text: KMNH 010015Z AUTO 36018G25KT 3SM -SN BKN004 OVC009 M02/M03 A3006 RMK AO2
Conditions at: KMNH (MONUMENT/ELBERT , CO, US) observed 0015 UTC 01 May 2016
Temperature: -2.0°C (28°F)
Dewpoint: -3.0°C (27°F) [RH = 93%]
Pressure (altimeter): 30.06 inches Hg (1018.0 mb)
Winds: from the N (360 degrees) at 21 MPH (18 knots; 9.4 m/sgusting to 29 MPH (25 knots; 13.0 m/s)
Visibility: 3 miles (5 km)
Ceiling: 400 feet AGL
Clouds: broken clouds at 400 feet AGL
overcast cloud deck at 900 feet AGL
Weather: -SN  (light snow)

METAR text: KMNH 302356Z AUTO 36018G30KT 1/2SM -SN OVC004 M02/M03 A3006 RMK AO2
Conditions at: KMNH (MONUMENT/ELBERT , CO, US) observed 2356 UTC 30 April 2016
Temperature: -2.0°C (28°F)
Dewpoint: -3.0°C (27°F) [RH = 93%]
Pressure (altimeter): 30.06 inches Hg (1018.0 mb)
Winds: from the N (360 degrees) at 21 MPH (18 knots; 9.4 m/sgusting to 34 MPH (30 knots; 15.6 m/s)
Visibility: 0.50 miles (0.80 km)
Ceiling: 400 feet AGL
Clouds: overcast cloud deck at 400 feet AGL
Weather: -SN  (light snow)

METAR text: KMNH 302336Z AUTO 35016KT 2 1/2SM BR SCT006 BKN009 OVC014 M01/M02 A3004 RMK AO2
Conditions at: KMNH (MONUMENT/ELBERT , CO, US) observed 2336 UTC 30 April 2016
Temperature: -1.0°C (30°F)
Dewpoint: -2.0°C (28°F) [RH = 93%]
Pressure (altimeter): 30.04 inches Hg (1017.4 mb)
Winds: from the N (350 degrees) at 18 MPH (16 knots; 8.3 m/s)
Visibility: 2.50 miles (4.02 km)
Ceiling: 900 feet AGL
Clouds: scattered clouds at 600 feet AGL
broken clouds at 900 feet AGL
overcast cloud deck at 1400 feet AGL
Weather: BR  (mist)

METAR text: KMNH 302315Z AUTO 36016G27KT 1 1/2SM -SN BKN006 OVC012 M02/M03 A3003 RMK AO2
Conditions at: KMNH (MONUMENT/ELBERT , CO, US) observed 2315 UTC 30 April 2016
Temperature: -2.0°C (28°F)
Dewpoint: -3.0°C (27°F) [RH = 93%]
Pressure (altimeter): 30.03 inches Hg (1017.0 mb)
Winds: from the N (360 degrees) at 18 MPH (16 knots; 8.3 m/sgusting to 31 MPH (27 knots; 14.0 m/s)
Visibility: 1.50 miles (2.41 km)
Ceiling: 600 feet AGL
Clouds: broken clouds at 600 feet AGL
overcast cloud deck at 1200 feet AGL
Weather: -SN  (light snow)

METAR text: KMNH 302256Z AUTO 36019G25KT 1SM -SN OVC006 M01/M02 A3003 RMK AO2
Conditions at: KMNH (MONUMENT/ELBERT , CO, US) observed 2256 UTC 30 April 2016
Temperature: -1.0°C (30°F)
Dewpoint: -2.0°C (28°F) [RH = 93%]
Pressure (altimeter): 30.03 inches Hg (1017.0 mb)
Winds: from the N (360 degrees) at 22 MPH (19 knots; 9.9 m/sgusting to 29 MPH (25 knots; 13.0 m/s)
Visibility: 1.00 miles (1.61 km)
Ceiling: 600 feet AGL
Clouds: overcast cloud deck at 600 feet AGL
Weather: -SN  (light snow)

METAR text: KMNH 302236Z AUTO 36014G19KT 2 1/2SM -SN BKN006 BKN012 OVC017 M01/M02 A3002 RMK AO2
Conditions at: KMNH (MONUMENT/ELBERT , CO, US) observed 2236 UTC 30 April 2016
Temperature: -1.0°C (30°F)
Dewpoint: -2.0°C (28°F) [RH = 93%]
Pressure (altimeter): 30.02 inches Hg (1016.7 mb)
Winds: from the N (360 degrees) at 16 MPH (14 knots; 7.3 m/sgusting to 22 MPH (19 knots; 9.9 m/s)
Visibility: 2.50 miles (4.02 km)
Ceiling: 600 feet AGL
Clouds: broken clouds at 600 feet AGL
broken clouds at 1200 feet AGL
overcast cloud deck at 1700 feet AGL
Weather: -SN  (light snow)

METAR text: KMNH 302216Z AUTO 36016G23KT 1 1/2SM -SN OVC008 M01/M03 A3001 RMK AO2
Conditions at: KMNH (MONUMENT/ELBERT , CO, US) observed 2216 UTC 30 April 2016
Temperature: -1.0°C (30°F)
Dewpoint: -3.0°C (27°F) [RH = 86%]
Pressure (altimeter): 30.01 inches Hg (1016.3 mb)
Winds: from the N (360 degrees) at 18 MPH (16 knots; 8.3 m/sgusting to 26 MPH (23 knots; 12.0 m/s)
Visibility: 1.50 miles (2.41 km)
Ceiling: 800 feet AGL
Clouds: overcast cloud deck at 800 feet AGL
Weather: -SN  (light snow)

METAR text: KMNH 302156Z AUTO 36018G23KT 2SM BR BKN006 OVC013 M01/M03 A3001 RMK AO2
Conditions at: KMNH (MONUMENT/ELBERT , CO, US) observed 2156 UTC 30 April 2016
Temperature: -1.0°C (30°F)
Dewpoint: -3.0°C (27°F) [RH = 86%]
Pressure (altimeter): 30.01 inches Hg (1016.3 mb)
Winds: from the N (360 degrees) at 21 MPH (18 knots; 9.4 m/sgusting to 26 MPH (23 knots; 12.0 m/s)
Visibility: 2.00 miles (3.22 km)
Ceiling: 600 feet AGL
Clouds: broken clouds at 600 feet AGL
overcast cloud deck at 1300 feet AGL
Weather: BR  (mist)

METAR text: KMNH 302136Z AUTO 35017G22KT 3SM BR BKN006 BKN011 OVC024 M01/M03 A3001 RMK AO2
Conditions at: KMNH (MONUMENT/ELBERT , CO, US) observed 2136 UTC 30 April 2016
Temperature: -1.0°C (30°F)
Dewpoint: -3.0°C (27°F) [RH = 86%]
Pressure (altimeter): 30.01 inches Hg (1016.3 mb)
Winds: from the N (350 degrees) at 20 MPH (17 knots; 8.8 m/sgusting to 25 MPH (22 knots; 11.4 m/s)
Visibility: 3 miles (5 km)
Ceiling: 600 feet AGL
Clouds: broken clouds at 600 feet AGL
broken clouds at 1100 feet AGL
overcast cloud deck at 2400 feet AGL
Weather: BR  (mist)

METAR text: KMNH 302116Z AUTO 35016G26KT 1/2SM -SN OVC006 M01/M03 A3000 RMK AO2
Conditions at: KMNH (MONUMENT/ELBERT , CO, US) observed 2116 UTC 30 April 2016
Temperature: -1.0°C (30°F)
Dewpoint: -3.0°C (27°F) [RH = 86%]
Pressure (altimeter): 30.00 inches Hg (1016.0 mb)
Winds: from the N (350 degrees) at 18 MPH (16 knots; 8.3 m/sgusting to 30 MPH (26 knots; 13.5 m/s)
Visibility: 0.50 miles (0.80 km)
Ceiling: 600 feet AGL
Clouds: overcast cloud deck at 600 feet AGL
Weather: -SN  (light snow)

METAR text: KMNH 302056Z AUTO 34020G30KT 2SM BR OVC006 M01/M02 A3000 RMK AO2 VIS 1 1/2V5
Conditions at: KMNH (MONUMENT/ELBERT , CO, US) observed 2056 UTC 30 April 2016
Temperature: -1.0°C (30°F)
Dewpoint: -2.0°C (28°F) [RH = 93%]
Pressure (altimeter): 30.00 inches Hg (1016.0 mb)
Winds: from the NNW (340 degrees) at 23 MPH (20 knots; 10.4 m/sgusting to 34 MPH (30 knots; 15.6 m/s)
Visibility: 2.00 miles (3.22 km)
Ceiling: 600 feet AGL
Clouds: overcast cloud deck at 600 feet AGL
Weather: BR  (mist)

METAR text: KMNH 302036Z AUTO 33021G27KT 3/4SM BR OVC005 M01/M03 A2999 RMK AO2
Conditions at: KMNH (MONUMENT/ELBERT , CO, US) observed 2036 UTC 30 April 2016
Temperature: -1.0°C (30°F)
Dewpoint: -3.0°C (27°F) [RH = 86%]
Pressure (altimeter): 29.99 inches Hg (1015.7 mb)
Winds: from the NNW (330 degrees) at 24 MPH (21 knots; 10.9 m/sgusting to 31 MPH (27 knots; 14.0 m/s)
Visibility: 0.75 miles (1.21 km)
Ceiling: 500 feet AGL
Clouds: overcast cloud deck at 500 feet AGL
Weather: BR  (mist)

METAR text: KMNH 302016Z AUTO 33021G25KT 1 1/2SM BR BKN005 OVC009 M01/M03 A2999 RMK AO2
Conditions at: KMNH (MONUMENT/ELBERT , CO, US) observed 2016 UTC 30 April 2016
Temperature: -1.0°C (30°F)
Dewpoint: -3.0°C (27°F) [RH = 86%]
Pressure (altimeter): 29.99 inches Hg (1015.7 mb)
Winds: from the NNW (330 degrees) at 24 MPH (21 knots; 10.9 m/sgusting to 29 MPH (25 knots; 13.0 m/s)
Visibility: 1.50 miles (2.41 km)
Ceiling: 500 feet AGL
Clouds: broken clouds at 500 feet AGL
overcast cloud deck at 900 feet AGL
Weather: BR  (mist)

METAR text: KMNH 301956Z AUTO 34017G22KT 1SM -SN OVC005 M01/M03 A2998 RMK AO2
Conditions at: KMNH (MONUMENT/ELBERT , CO, US) observed 1956 UTC 30 April 2016
Temperature: -1.0°C (30°F)
Dewpoint: -3.0°C (27°F) [RH = 86%]
Pressure (altimeter): 29.98 inches Hg (1015.3 mb)
Winds: from the NNW (340 degrees) at 20 MPH (17 knots; 8.8 m/sgusting to 25 MPH (22 knots; 11.4 m/s)
Visibility: 1.00 miles (1.61 km)
Ceiling: 500 feet AGL
Clouds: overcast cloud deck at 500 feet AGL
Weather: -SN  (light snow)

METAR text: KMNH 301936Z AUTO 33019G24KT 1 1/2SM -SN OVC006 M01/M03 A2997 RMK AO2
Conditions at: KMNH (MONUMENT/ELBERT , CO, US) observed 1936 UTC 30 April 2016
Temperature: -1.0°C (30°F)
Dewpoint: -3.0°C (27°F) [RH = 86%]
Pressure (altimeter): 29.97 inches Hg (1015.0 mb)
Winds: from the NNW (330 degrees) at 22 MPH (19 knots; 9.9 m/sgusting to 28 MPH (24 knots; 12.5 m/s)
Visibility: 1.50 miles (2.41 km)
Ceiling: 600 feet AGL
Clouds: overcast cloud deck at 600 feet AGL
Weather: -SN  (light snow)

METAR text: KMNH 301916Z AUTO 33018G22KT 2SM BR OVC006 M01/M03 A2997 RMK AO2
Conditions at: KMNH (MONUMENT/ELBERT , CO, US) observed 1916 UTC 30 April 2016
Temperature: -1.0°C (30°F)
Dewpoint: -3.0°C (27°F) [RH = 86%]
Pressure (altimeter): 29.97 inches Hg (1015.0 mb)
Winds: from the NNW (330 degrees) at 21 MPH (18 knots; 9.4 m/sgusting to 25 MPH (22 knots; 11.4 m/s)
Visibility: 2.00 miles (3.22 km)
Ceiling: 600 feet AGL
Clouds: overcast cloud deck at 600 feet AGL
Weather: BR  (mist)

METAR text: KMNH 301856Z AUTO 34018G24KT 2SM BR OVC006 M01/M03 A2996 RMK AO2
Conditions at: KMNH (MONUMENT/ELBERT , CO, US) observed 1856 UTC 30 April 2016
Temperature: -1.0°C (30°F)
Dewpoint: -3.0°C (27°F) [RH = 86%]
Pressure (altimeter): 29.96 inches Hg (1014.6 mb)
Winds: from the NNW (340 degrees) at 21 MPH (18 knots; 9.4 m/sgusting to 28 MPH (24 knots; 12.5 m/s)
Visibility: 2.00 miles (3.22 km)
Ceiling: 600 feet AGL
Clouds: overcast cloud deck at 600 feet AGL
Weather: BR  (mist)

METAR text: KMNH 301836Z AUTO 33015KT 7SM BKN006 BKN013 OVC019 M01/M03 A2996 RMK AO2
Conditions at: KMNH (MONUMENT/ELBERT , CO, US) observed 1836 UTC 30 April 2016
Temperature: -1.0°C (30°F)
Dewpoint: -3.0°C (27°F) [RH = 86%]
Pressure (altimeter): 29.96 inches Hg (1014.6 mb)
Winds: from the NNW (330 degrees) at 17 MPH (15 knots; 7.8 m/s)
Visibility: 7 miles (11 km)
Ceiling: 600 feet AGL
Clouds: broken clouds at 600 feet AGL
broken clouds at 1300 feet AGL
overcast cloud deck at 1900 feet AGL
Weather: automated observation with no human augmentation;
there may or may not be significant weather present at this time

METAR text: KMNH 301816Z AUTO 33017G23KT 1 1/4SM -SN BKN008 OVC015 M01/M03 A2996 RMK AO2
Conditions at: KMNH (MONUMENT/ELBERT , CO, US) observed 1816 UTC 30 April 2016
Temperature: -1.0°C (30°F)
Dewpoint: -3.0°C (27°F) [RH = 86%]
Pressure (altimeter): 29.96 inches Hg (1014.6 mb)
Winds: from the NNW (330 degrees) at 20 MPH (17 knots; 8.8 m/sgusting to 26 MPH (23 knots; 12.0 m/s)
Visibility: 1.25 miles (2.01 km)
Ceiling: 800 feet AGL
Clouds: broken clouds at 800 feet AGL
overcast cloud deck at 1500 feet AGL
Weather: -SN  (light snow)

METAR text: KMNH 301756Z AUTO 34014G25KT 1 1/4SM -SN SCT004 OVC010 M01/M03 A2996 RMK AO2 LTG DSNT SW
Conditions at: KMNH (MONUMENT/ELBERT , CO, US) observed 1756 UTC 30 April 2016
Temperature: -1.0°C (30°F)
Dewpoint: -3.0°C (27°F) [RH = 86%]
Pressure (altimeter): 29.96 inches Hg (1014.6 mb)
Winds: from the NNW (340 degrees) at 16 MPH (14 knots; 7.3 m/sgusting to 29 MPH (25 knots; 13.0 m/s)
Visibility: 1.25 miles (2.01 km)
Ceiling: 1000 feet AGL
Clouds: scattered clouds at 400 feet AGL
overcast cloud deck at 1000 feet AGL
Weather: -SN  (light snow)

METAR text: KMNH 301736Z AUTO 35018G24KT 1 1/2SM -SN OVC010 M01/M03 A2996 RMK AO2
Conditions at: KMNH (MONUMENT/ELBERT , CO, US) observed 1736 UTC 30 April 2016
Temperature: -1.0°C (30°F)
Dewpoint: -3.0°C (27°F) [RH = 86%]
Pressure (altimeter): 29.96 inches Hg (1014.6 mb)
Winds: from the N (350 degrees) at 21 MPH (18 knots; 9.4 m/sgusting to 28 MPH (24 knots; 12.5 m/s)
Visibility: 1.50 miles (2.41 km)
Ceiling: 1000 feet AGL
Clouds: overcast cloud deck at 1000 feet AGL
Weather: -SN  (light snow)

METAR text: KMNH 301716Z AUTO 35016G24KT 1SM -SN OVC007 M02/M03 A2994 RMK AO2
Conditions at: KMNH (MONUMENT/ELBERT , CO, US) observed 1716 UTC 30 April 2016
Temperature: -2.0°C (28°F)
Dewpoint: -3.0°C (27°F) [RH = 93%]
Pressure (altimeter): 29.94 inches Hg (1014.0 mb)
Winds: from the N (350 degrees) at 18 MPH (16 knots; 8.3 m/sgusting to 28 MPH (24 knots; 12.5 m/s)
Visibility: 1.00 miles (1.61 km)
Ceiling: 700 feet AGL
Clouds: overcast cloud deck at 700 feet AGL
Weather: -SN  (light snow)

METAR text: KMNH 301656Z AUTO 34016KT 7SM -SN BKN007 OVC013 M02/M03 A2994 RMK AO2
Conditions at: KMNH (MONUMENT/ELBERT , CO, US) observed 1656 UTC 30 April 2016
Temperature: -2.0°C (28°F)
Dewpoint: -3.0°C (27°F) [RH = 93%]
Pressure (altimeter): 29.94 inches Hg (1014.0 mb)
Winds: from the NNW (340 degrees) at 18 MPH (16 knots; 8.3 m/s)
Visibility: 7 miles (11 km)
Ceiling: 700 feet AGL
Clouds: broken clouds at 700 feet AGL
overcast cloud deck at 1300 feet AGL
Weather: -SN  (light snow)

METAR text: KMNH 301636Z AUTO 35018G21KT 4SM -SN BKN007 OVC013 M01/M03 A2993 RMK AO2
Conditions at: KMNH (MONUMENT/ELBERT , CO, US) observed 1636 UTC 30 April 2016
Temperature: -1.0°C (30°F)
Dewpoint: -3.0°C (27°F) [RH = 86%]
Pressure (altimeter): 29.93 inches Hg (1013.6 mb)
Winds: from the N (350 degrees) at 21 MPH (18 knots; 9.4 m/sgusting to 24 MPH (21 knots; 10.9 m/s)
Visibility: 4 miles (6 km)
Ceiling: 700 feet AGL
Clouds: broken clouds at 700 feet AGL
overcast cloud deck at 1300 feet AGL
Weather: -SN  (light snow)

METAR text: KMNH 301616Z AUTO 35017G22KT 7SM -SN OVC007 M02/M04 A2992 RMK AO2
Conditions at: KMNH (MONUMENT/ELBERT , CO, US) observed 1616 UTC 30 April 2016
Temperature: -2.0°C (28°F)
Dewpoint: -4.0°C (25°F) [RH = 86%]
Pressure (altimeter): 29.92 inches Hg (1013.3 mb)
Winds: from the N (350 degrees) at 20 MPH (17 knots; 8.8 m/sgusting to 25 MPH (22 knots; 11.4 m/s)
Visibility: 7 miles (11 km)
Ceiling: 700 feet AGL
Clouds: overcast cloud deck at 700 feet AGL
Weather: -SN  (light snow)

METAR text: KMNH 301556Z AUTO 35015G24KT 7SM BKN009 OVC013 M02/M04 A2991 RMK AO2
Conditions at: KMNH (MONUMENT/ELBERT , CO, US) observed 1556 UTC 30 April 2016
Temperature: -2.0°C (28°F)
Dewpoint: -4.0°C (25°F) [RH = 86%]
Pressure (altimeter): 29.91 inches Hg (1013.0 mb)
Winds: from the N (350 degrees) at 17 MPH (15 knots; 7.8 m/sgusting to 28 MPH (24 knots; 12.5 m/s)
Visibility: 7 miles (11 km)
Ceiling: 900 feet AGL
Clouds: broken clouds at 900 feet AGL
overcast cloud deck at 1300 feet AGL
Weather: automated observation with no human augmentation;
there may or may not be significant weather present at this time

METAR text: KMNH 301535Z AUTO 35016G22KT 7SM SCT006 BKN011 OVC020 M02/M04 A2990 RMK AO2
Conditions at: KMNH (MONUMENT/ELBERT , CO, US) observed 1535 UTC 30 April 2016
Temperature: -2.0°C (28°F)
Dewpoint: -4.0°C (25°F) [RH = 86%]
Pressure (altimeter): 29.90 inches Hg (1012.6 mb)
Winds: from the N (350 degrees) at 18 MPH (16 knots; 8.3 m/sgusting to 25 MPH (22 knots; 11.4 m/s)
Visibility: 7 miles (11 km)
Ceiling: 1100 feet AGL
Clouds: scattered clouds at 600 feet AGL
broken clouds at 1100 feet AGL
overcast cloud deck at 2000 feet AGL
Weather: automated observation with no human augmentation;
there may or may not be significant weather present at this time

METAR text: KMNH 301516Z AUTO 34015KT 10SM SCT004 SCT008 BKN019 M02/M03 A2990 RMK AO2
Conditions at: KMNH (MONUMENT/ELBERT , CO, US) observed 1516 UTC 30 April 2016
Temperature: -2.0°C (28°F)
Dewpoint: -3.0°C (27°F) [RH = 93%]
Pressure (altimeter): 29.90 inches Hg (1012.6 mb)
Winds: from the NNW (340 degrees) at 17 MPH (15 knots; 7.8 m/s)
Visibility: 10 or more miles (16+ km)
Ceiling: 1900 feet AGL
Clouds: scattered clouds at 400 feet AGL
scattered clouds at 800 feet AGL
broken clouds at 1900 feet AGL
Weather: automated observation with no human augmentation;
there may or may not be significant weather present at this time

METAR text: KMNH 301456Z AUTO 34015KT 10SM BKN008 BKN012 BKN017 M03/M04 A2990 RMK AO2
Conditions at: KMNH (MONUMENT/ELBERT , CO, US) observed 1456 UTC 30 April 2016
Temperature: -3.0°C (27°F)
Dewpoint: -4.0°C (25°F) [RH = 93%]
Pressure (altimeter): 29.90 inches Hg (1012.6 mb)
Winds: from the NNW (340 degrees) at 17 MPH (15 knots; 7.8 m/s)
Visibility: 10 or more miles (16+ km)
Ceiling: 800 feet AGL
Clouds: broken clouds at 800 feet AGL
broken clouds at 1200 feet AGL
broken clouds at 1700 feet AGL
Weather: automated observation with no human augmentation;
there may or may not be significant weather present at this time

METAR text: KMNH 301436Z AUTO 35015G20KT 2 1/2SM BR SCT003 BKN008 OVC012 M03/M03 A2990 RMK AO2
Conditions at: KMNH (MONUMENT/ELBERT , CO, US) observed 1436 UTC 30 April 2016
Temperature: -3.0°C (27°F)
Dewpoint: -3.0°C (27°F) [RH = 100%]
Pressure (altimeter): 29.90 inches Hg (1012.6 mb)
Winds: from the N (350 degrees) at 17 MPH (15 knots; 7.8 m/sgusting to 23 MPH (20 knots; 10.4 m/s)
Visibility: 2.50 miles (4.02 km)
Ceiling: 800 feet AGL
Clouds: scattered clouds at 300 feet AGL
broken clouds at 800 feet AGL
overcast cloud deck at 1200 feet AGL
Weather: BR  (mist)

METAR text: KMNH 301416Z AUTO 34016G20KT 4SM BR OVC005 M03/M03 A2989 RMK AO2
Conditions at: KMNH (MONUMENT/ELBERT , CO, US) observed 1416 UTC 30 April 2016
Temperature: -3.0°C (27°F)
Dewpoint: -3.0°C (27°F) [RH = 100%]
Pressure (altimeter): 29.89 inches Hg (1012.3 mb)
Winds: from the NNW (340 degrees) at 18 MPH (16 knots; 8.3 m/sgusting to 23 MPH (20 knots; 10.4 m/s)
Visibility: 4 miles (6 km)
Ceiling: 500 feet AGL
Clouds: overcast cloud deck at 500 feet AGL
Weather: BR  (mist)

METAR text: KMNH 301356Z AUTO 34015G22KT 2 1/2SM BR OVC003 M03/M03 A2988 RMK AO2
Conditions at: KMNH (MONUMENT/ELBERT , CO, US) observed 1356 UTC 30 April 2016
Temperature: -3.0°C (27°F)
Dewpoint: -3.0°C (27°F) [RH = 100%]
Pressure (altimeter): 29.88 inches Hg (1011.9 mb)
Winds: from the NNW (340 degrees) at 17 MPH (15 knots; 7.8 m/sgusting to 25 MPH (22 knots; 11.4 m/s)
Visibility: 2.50 miles (4.02 km)
Ceiling: 300 feet AGL
Clouds: overcast cloud deck at 300 feet AGL
Weather: BR  (mist)

METAR text: KMNH 301335Z AUTO 34019KT 1 3/4SM -SN OVC003 M02/M03 A2986 RMK AO2
Conditions at: KMNH (MONUMENT/ELBERT , CO, US) observed 1335 UTC 30 April 2016
Temperature: -2.0°C (28°F)
Dewpoint: -3.0°C (27°F) [RH = 93%]
Pressure (altimeter): 29.86 inches Hg (1011.3 mb)
Winds: from the NNW (340 degrees) at 22 MPH (19 knots; 9.9 m/s)
Visibility: 1.75 miles (2.82 km)
Ceiling: 300 feet AGL
Clouds: overcast cloud deck at 300 feet AGL
Weather: -SN  (light snow)

METAR text: KMNH 301315Z AUTO 33019KT 1 1/2SM -SN OVC003 M03/M03 A2986 RMK AO2
Conditions at: KMNH (MONUMENT/ELBERT , CO, US) observed 1315 UTC 30 April 2016
Temperature: -3.0°C (27°F)
Dewpoint: -3.0°C (27°F) [RH = 100%]
Pressure (altimeter): 29.86 inches Hg (1011.3 mb)
Winds: from the NNW (330 degrees) at 22 MPH (19 knots; 9.9 m/s)
Visibility: 1.50 miles (2.41 km)
Ceiling: 300 feet AGL
Clouds: overcast cloud deck at 300 feet AGL
Weather: -SN  (light snow)

METAR text: KMNH 301256Z AUTO 33014KT 2 1/2SM BR BKN003 BKN007 OVC010 M03/M03 A2986 RMK AO2
Conditions at: KMNH (MONUMENT/ELBERT , CO, US) observed 1256 UTC 30 April 2016
Temperature: -3.0°C (27°F)
Dewpoint: -3.0°C (27°F) [RH = 100%]
Pressure (altimeter): 29.86 inches Hg (1011.3 mb)
Winds: from the NNW (330 degrees) at 16 MPH (14 knots; 7.3 m/s)
Visibility: 2.50 miles (4.02 km)
Ceiling: 300 feet AGL
Clouds: broken clouds at 300 feet AGL
broken clouds at 700 feet AGL
overcast cloud deck at 1000 feet AGL
Weather: BR  (mist)

METAR text: KMNH 301236Z AUTO 32013KT 1 1/2SM -SN OVC003 M03/M03 A2986 RMK AO2
Conditions at: KMNH (MONUMENT/ELBERT , CO, US) observed 1236 UTC 30 April 2016
Temperature: -3.0°C (27°F)
Dewpoint: -3.0°C (27°F) [RH = 100%]
Pressure (altimeter): 29.86 inches Hg (1011.3 mb)
Winds: from the NW (320 degrees) at 15 MPH (13 knots; 6.8 m/s)
Visibility: 1.50 miles (2.41 km)
Ceiling: 300 feet AGL
Clouds: overcast cloud deck at 300 feet AGL
Weather: -SN  (light snow)

METAR text: KMNH 301216Z AUTO 33016G19KT 1SM BR OVC003 M03/M03 A2985 RMK AO2
Conditions at: KMNH (MONUMENT/ELBERT , CO, US) observed 1216 UTC 30 April 2016
Temperature: -3.0°C (27°F)
Dewpoint: -3.0°C (27°F) [RH = 100%]
Pressure (altimeter): 29.85 inches Hg (1010.9 mb)
Winds: from the NNW (330 degrees) at 18 MPH (16 knots; 8.3 m/sgusting to 22 MPH (19 knots; 9.9 m/s)
Visibility: 1.00 miles (1.61 km)
Ceiling: 300 feet AGL
Clouds: overcast cloud deck at 300 feet AGL
Weather: BR  (mist)

METAR text: KMNH 301156Z AUTO 34014KT 2SM BR OVC003 M03/M03 A2985 RMK AO2
Conditions at: KMNH (MONUMENT/ELBERT , CO, US) observed 1156 UTC 30 April 2016
Temperature: -3.0°C (27°F)
Dewpoint: -3.0°C (27°F) [RH = 100%]
Pressure (altimeter): 29.85 inches Hg (1010.9 mb)
Winds: from the NNW (340 degrees) at 16 MPH (14 knots; 7.3 m/s)
Visibility: 2.00 miles (3.22 km)
Ceiling: 300 feet AGL
Clouds: overcast cloud deck at 300 feet AGL
Weather: BR  (mist)

METAR text: KMNH 301136Z AUTO 33013G18KT 3SM -SN OVC003 M03/M03 A2985 RMK AO2
Conditions at: KMNH (MONUMENT/ELBERT , CO, US) observed 1136 UTC 30 April 2016
Temperature: -3.0°C (27°F)
Dewpoint: -3.0°C (27°F) [RH = 100%]
Pressure (altimeter): 29.85 inches Hg (1010.9 mb)
Winds: from the NNW (330 degrees) at 15 MPH (13 knots; 6.8 m/sgusting to 21 MPH (18 knots; 9.4 m/s)
Visibility: 3 miles (5 km)
Ceiling: 300 feet AGL
Clouds: overcast cloud deck at 300 feet AGL
Weather: -SN  (light snow)

METAR text: KMNH 301116Z AUTO 33012KT 5SM BR BKN003 OVC009 M03/M03 A2985 RMK AO2
Conditions at: KMNH (MONUMENT/ELBERT , CO, US) observed 1116 UTC 30 April 2016
Temperature: -3.0°C (27°F)
Dewpoint: -3.0°C (27°F) [RH = 100%]
Pressure (altimeter): 29.85 inches Hg (1010.9 mb)
Winds: from the NNW (330 degrees) at 14 MPH (12 knots; 6.2 m/s)
Visibility: 5 miles (8 km)
Ceiling: 300 feet AGL
Clouds: broken clouds at 300 feet AGL
overcast cloud deck at 900 feet AGL
Weather: BR  (mist)

METAR text: KMNH 301056Z AUTO 34012KT 1 3/4SM -SN OVC003 M03/M03 A2985 RMK AO2
Conditions at: KMNH (MONUMENT/ELBERT , CO, US) observed 1056 UTC 30 April 2016
Temperature: -3.0°C (27°F)
Dewpoint: -3.0°C (27°F) [RH = 100%]
Pressure (altimeter): 29.85 inches Hg (1010.9 mb)
Winds: from the NNW (340 degrees) at 14 MPH (12 knots; 6.2 m/s)
Visibility: 1.75 miles (2.82 km)
Ceiling: 300 feet AGL
Clouds: overcast cloud deck at 300 feet AGL
Weather: -SN  (light snow)

METAR text: KMNH 301036Z AUTO 34013KT 2SM BR OVC003 M03/M03 A2985 RMK AO2
Conditions at: KMNH (MONUMENT/ELBERT , CO, US) observed 1036 UTC 30 April 2016
Temperature: -3.0°C (27°F)
Dewpoint: -3.0°C (27°F) [RH = 100%]
Pressure (altimeter): 29.85 inches Hg (1010.9 mb)
Winds: from the NNW (340 degrees) at 15 MPH (13 knots; 6.8 m/s)
Visibility: 2.00 miles (3.22 km)
Ceiling: 300 feet AGL
Clouds: overcast cloud deck at 300 feet AGL
Weather: BR  (mist)

METAR text: KMNH 301015Z AUTO 34010KT 3SM -SN BKN003 OVC007 M03/M03 A2985 RMK AO2
Conditions at: KMNH (MONUMENT/ELBERT , CO, US) observed 1015 UTC 30 April 2016
Temperature: -3.0°C (27°F)
Dewpoint: -3.0°C (27°F) [RH = 100%]
Pressure (altimeter): 29.85 inches Hg (1010.9 mb)
Winds: from the NNW (340 degrees) at 12 MPH (10 knots; 5.2 m/s)
Visibility: 3 miles (5 km)
Ceiling: 300 feet AGL
Clouds: broken clouds at 300 feet AGL
overcast cloud deck at 700 feet AGL
Weather: -SN  (light snow)

METAR text: KMNH 300956Z AUTO 34012KT 2 1/2SM -SN BKN005 OVC008 M03/M03 A2984 RMK AO2
Conditions at: KMNH (MONUMENT/ELBERT , CO, US) observed 0956 UTC 30 April 2016
Temperature: -3.0°C (27°F)
Dewpoint: -3.0°C (27°F) [RH = 100%]
Pressure (altimeter): 29.84 inches Hg (1010.6 mb)
Winds: from the NNW (340 degrees) at 14 MPH (12 knots; 6.2 m/s)
Visibility: 2.50 miles (4.02 km)
Ceiling: 500 feet AGL
Clouds: broken clouds at 500 feet AGL
overcast cloud deck at 800 feet AGL
Weather: -SN  (light snow)

METAR text: KMNH 300936Z AUTO 34012KT 1SM BR OVC005 M03/M03 A2984 RMK AO2
Conditions at: KMNH (MONUMENT/ELBERT , CO, US) observed 0936 UTC 30 April 2016
Temperature: -3.0°C (27°F)
Dewpoint: -3.0°C (27°F) [RH = 100%]
Pressure (altimeter): 29.84 inches Hg (1010.6 mb)
Winds: from the NNW (340 degrees) at 14 MPH (12 knots; 6.2 m/s)
Visibility: 1.00 miles (1.61 km)
Ceiling: 500 feet AGL
Clouds: overcast cloud deck at 500 feet AGL
Weather: BR  (mist)

METAR text: KMNH 300916Z AUTO 33012KT 1 1/4SM BR BKN003 OVC007 M03/M03 A2984 RMK AO2
Conditions at: KMNH (MONUMENT/ELBERT , CO, US) observed 0916 UTC 30 April 2016
Temperature: -3.0°C (27°F)
Dewpoint: -3.0°C (27°F) [RH = 100%]
Pressure (altimeter): 29.84 inches Hg (1010.6 mb)
Winds: from the NNW (330 degrees) at 14 MPH (12 knots; 6.2 m/s)
Visibility: 1.25 miles (2.01 km)
Ceiling: 300 feet AGL
Clouds: broken clouds at 300 feet AGL
overcast cloud deck at 700 feet AGL
Weather: BR  (mist)

METAR text: KMNH 300856Z AUTO 33011KT 2 1/2SM BR BKN003 OVC006 M03/M03 A2984 RMK AO2
Conditions at: KMNH (MONUMENT/ELBERT , CO, US) observed 0856 UTC 30 April 2016
Temperature: -3.0°C (27°F)
Dewpoint: -3.0°C (27°F) [RH = 100%]
Pressure (altimeter): 29.84 inches Hg (1010.6 mb)
Winds: from the NNW (330 degrees) at 13 MPH (11 knots; 5.7 m/s)
Visibility: 2.50 miles (4.02 km)
Ceiling: 300 feet AGL
Clouds: broken clouds at 300 feet AGL
overcast cloud deck at 600 feet AGL
Weather: BR  (mist)

METAR text: KMNH 300835Z AUTO 33010KT 3SM -SN BKN003 OVC008 M03/M03 A2985 RMK AO2
Conditions at: KMNH (MONUMENT/ELBERT , CO, US) observed 0835 UTC 30 April 2016
Temperature: -3.0°C (27°F)
Dewpoint: -3.0°C (27°F) [RH = 100%]
Pressure (altimeter): 29.85 inches Hg (1010.9 mb)
Winds: from the NNW (330 degrees) at 12 MPH (10 knots; 5.2 m/s)
Visibility: 3 miles (5 km)
Ceiling: 300 feet AGL
Clouds: broken clouds at 300 feet AGL
overcast cloud deck at 800 feet AGL
Weather: -SN  (light snow)

METAR text: KMNH 300816Z AUTO 34009KT 2 1/2SM -SN BKN003 OVC008 M02/M03 A2985 RMK AO2
Conditions at: KMNH (MONUMENT/ELBERT , CO, US) observed 0816 UTC 30 April 2016
Temperature: -2.0°C (28°F)
Dewpoint: -3.0°C (27°F) [RH = 93%]
Pressure (altimeter): 29.85 inches Hg (1010.9 mb)
Winds: from the NNW (340 degrees) at 10 MPH (9 knots; 4.7 m/s)
Visibility: 2.50 miles (4.02 km)
Ceiling: 300 feet AGL
Clouds: broken clouds at 300 feet AGL
overcast cloud deck at 800 feet AGL
Weather: -SN  (light snow)

METAR text: KMNH 300756Z AUTO 33012KT 4SM BR OVC003 M02/M02 A2986 RMK AO2
Conditions at: KMNH (MONUMENT/ELBERT , CO, US) observed 0756 UTC 30 April 2016
Temperature: -2.0°C (28°F)
Dewpoint: -2.0°C (28°F) [RH = 100%]
Pressure (altimeter): 29.86 inches Hg (1011.3 mb)
Winds: from the NNW (330 degrees) at 14 MPH (12 knots; 6.2 m/s)
Visibility: 4 miles (6 km)
Ceiling: 300 feet AGL
Clouds: overcast cloud deck at 300 feet AGL
Weather: BR  (mist)

METAR text: KMNH 300736Z AUTO 32010KT 2 1/2SM BR OVC003 M02/M03 A2986 RMK AO2
Conditions at: KMNH (MONUMENT/ELBERT , CO, US) observed 0736 UTC 30 April 2016
Temperature: -2.0°C (28°F)
Dewpoint: -3.0°C (27°F) [RH = 93%]
Pressure (altimeter): 29.86 inches Hg (1011.3 mb)
Winds: from the NW (320 degrees) at 12 MPH (10 knots; 5.2 m/s)
Visibility: 2.50 miles (4.02 km)
Ceiling: 300 feet AGL
Clouds: overcast cloud deck at 300 feet AGL
Weather: BR  (mist)

METAR text: KMNH 300716Z AUTO 32007KT 2 1/2SM BR BKN003 OVC008 M03/M03 A2986 RMK AO2
Conditions at: KMNH (MONUMENT/ELBERT , CO, US) observed 0716 UTC 30 April 2016
Temperature: -3.0°C (27°F)
Dewpoint: -3.0°C (27°F) [RH = 100%]
Pressure (altimeter): 29.86 inches Hg (1011.3 mb)
Winds: from the NW (320 degrees) at 8 MPH (7 knots; 3.6 m/s)
Visibility: 2.50 miles (4.02 km)
Ceiling: 300 feet AGL
Clouds: broken clouds at 300 feet AGL
overcast cloud deck at 800 feet AGL
Weather: BR  (mist)

METAR text: KMNH 300655Z AUTO 32008KT 4SM -SN BKN003 OVC008 M03/M03 A2986 RMK AO2 P0001
Conditions at: KMNH (MONUMENT/ELBERT , CO, US) observed 0655 UTC 30 April 2016
Temperature: -3.0°C (27°F)
Dewpoint: -3.0°C (27°F) [RH = 100%]
Pressure (altimeter): 29.86 inches Hg (1011.3 mb)
Winds: from the NW (320 degrees) at 9 MPH (8 knots; 4.2 m/s)
Visibility: 4 miles (6 km)
Ceiling: 300 feet AGL
Clouds: broken clouds at 300 feet AGL
overcast cloud deck at 800 feet AGL
Weather: -SN  (light snow)

METAR text: KMNH 300636Z AUTO 32007KT 3SM -SN SCT001 OVC010 M03/M03 A2987 RMK AO2 P0001
Conditions at: KMNH (MONUMENT/ELBERT , CO, US) observed 0636 UTC 30 April 2016
Temperature: -3.0°C (27°F)
Dewpoint: -3.0°C (27°F) [RH = 100%]
Pressure (altimeter): 29.87 inches Hg (1011.6 mb)
Winds: from the NW (320 degrees) at 8 MPH (7 knots; 3.6 m/s)
Visibility: 3 miles (5 km)
Ceiling: 1000 feet AGL
Clouds: scattered clouds at 100 feet AGL
overcast cloud deck at 1000 feet AGL
Weather: -SN  (light snow)

METAR text: KMNH 300616Z AUTO 32007KT 2 1/2SM -SN OVC008 M02/M03 A2987 RMK AO2
Conditions at: KMNH (MONUMENT/ELBERT , CO, US) observed 0616 UTC 30 April 2016
Temperature: -2.0°C (28°F)
Dewpoint: -3.0°C (27°F) [RH = 93%]
Pressure (altimeter): 29.87 inches Hg (1011.6 mb)
Winds: from the NW (320 degrees) at 8 MPH (7 knots; 3.6 m/s)
Visibility: 2.50 miles (4.02 km)
Ceiling: 800 feet AGL
Clouds: overcast cloud deck at 800 feet AGL
Weather: -SN  (light snow)

METAR text: KMNH 300556Z AUTO 33007KT 2SM -SN SCT001 OVC008 M02/M03 A2988 RMK AO2
Conditions at: KMNH (MONUMENT/ELBERT , CO, US) observed 0556 UTC 30 April 2016
Temperature: -2.0°C (28°F)
Dewpoint: -3.0°C (27°F) [RH = 93%]
Pressure (altimeter): 29.88 inches Hg (1011.9 mb)
Winds: from the NNW (330 degrees) at 8 MPH (7 knots; 3.6 m/s)
Visibility: 2.00 miles (3.22 km)
Ceiling: 800 feet AGL
Clouds: scattered clouds at 100 feet AGL
overcast cloud deck at 800 feet AGL
Weather: -SN  (light snow)

METAR text: KMNH 300536Z AUTO 34006KT 1 3/4SM -SN OVC008 M02/M03 A2988 RMK AO2
Conditions at: KMNH (MONUMENT/ELBERT , CO, US) observed 0536 UTC 30 April 2016
Temperature: -2.0°C (28°F)
Dewpoint: -3.0°C (27°F) [RH = 93%]
Pressure (altimeter): 29.88 inches Hg (1011.9 mb)
Winds: from the NNW (340 degrees) at 7 MPH (6 knots; 3.1 m/s)
Visibility: 1.75 miles (2.82 km)
Ceiling: 800 feet AGL
Clouds: overcast cloud deck at 800 feet AGL
Weather: -SN  (light snow)

METAR text: KMNH 300516Z AUTO 34005KT 1 3/4SM -SN OVC006 M02/M03 A2988 RMK AO2
Conditions at: KMNH (MONUMENT/ELBERT , CO, US) observed 0516 UTC 30 April 2016
Temperature: -2.0°C (28°F)
Dewpoint: -3.0°C (27°F) [RH = 93%]
Pressure (altimeter): 29.88 inches Hg (1011.9 mb)
Winds: from the NNW (340 degrees) at 6 MPH (5 knots; 2.6 m/s)
Visibility: 1.75 miles (2.82 km)
Ceiling: 600 feet AGL
Clouds: overcast cloud deck at 600 feet AGL
Weather: -SN  (light snow)

METAR text: KMNH 300456Z AUTO 34004KT 1 1/2SM -SN OVC006 M02/M03 A2989 RMK AO2 P0001
Conditions at: KMNH (MONUMENT/ELBERT , CO, US) observed 0456 UTC 30 April 2016
Temperature: -2.0°C (28°F)
Dewpoint: -3.0°C (27°F) [RH = 93%]
Pressure (altimeter): 29.89 inches Hg (1012.3 mb)
Winds: from the NNW (340 degrees) at 5 MPH (4 knots; 2.1 m/s)
Visibility: 1.50 miles (2.41 km)
Ceiling: 600 feet AGL
Clouds: overcast cloud deck at 600 feet AGL
Weather: -SN  (light snow)

METAR text: KMNH 300436Z AUTO 34005KT 1 1/2SM -SN OVC008 M02/M03 A2989 RMK AO2
Conditions at: KMNH (MONUMENT/ELBERT , CO, US) observed 0436 UTC 30 April 2016
Temperature: -2.0°C (28°F)
Dewpoint: -3.0°C (27°F) [RH = 93%]
Pressure (altimeter): 29.89 inches Hg (1012.3 mb)
Winds: from the NNW (340 degrees) at 6 MPH (5 knots; 2.6 m/s)
Visibility: 1.50 miles (2.41 km)
Ceiling: 800 feet AGL
Clouds: overcast cloud deck at 800 feet AGL
Weather: -SN  (light snow)

METAR text: KMNH 300416Z AUTO 33005KT 1 3/4SM -SN SCT001 OVC008 M02/M03 A2990 RMK AO2
Conditions at: KMNH (MONUMENT/ELBERT , CO, US) observed 0416 UTC 30 April 2016
Temperature: -2.0°C (28°F)
Dewpoint: -3.0°C (27°F) [RH = 93%]
Pressure (altimeter): 29.90 inches Hg (1012.6 mb)
Winds: from the NNW (330 degrees) at 6 MPH (5 knots; 2.6 m/s)
Visibility: 1.75 miles (2.82 km)
Ceiling: 800 feet AGL
Clouds: scattered clouds at 100 feet AGL
overcast cloud deck at 800 feet AGL
Weather: -SN  (light snow)

METAR text: KMNH 300356Z AUTO 33004KT 2SM -SN SCT001 OVC008 M02/M03 A2990 RMK AO2
Conditions at: KMNH (MONUMENT/ELBERT , CO, US) observed 0356 UTC 30 April 2016
Temperature: -2.0°C (28°F)
Dewpoint: -3.0°C (27°F) [RH = 93%]
Pressure (altimeter): 29.90 inches Hg (1012.6 mb)
Winds: from the NNW (330 degrees) at 5 MPH (4 knots; 2.1 m/s)
Visibility: 2.00 miles (3.22 km)
Ceiling: 800 feet AGL
Clouds: scattered clouds at 100 feet AGL
overcast cloud deck at 800 feet AGL
Weather: -SN  (light snow)

METAR text: KMNH 300336Z AUTO 33006KT 1 3/4SM -SN OVC008 M02/M03 A2990 RMK AO2
Conditions at: KMNH (MONUMENT/ELBERT , CO, US) observed 0336 UTC 30 April 2016
Temperature: -2.0°C (28°F)
Dewpoint: -3.0°C (27°F) [RH = 93%]
Pressure (altimeter): 29.90 inches Hg (1012.6 mb)
Winds: from the NNW (330 degrees) at 7 MPH (6 knots; 3.1 m/s)
Visibility: 1.75 miles (2.82 km)
Ceiling: 800 feet AGL
Clouds: overcast cloud deck at 800 feet AGL
Weather: -SN  (light snow)

METAR text: KMNH 300316Z AUTO 33006KT 2SM -SN BKN003 OVC008 M02/M03 A2990 RMK AO2
Conditions at: KMNH (MONUMENT/ELBERT , CO, US) observed 0316 UTC 30 April 2016
Temperature: -2.0°C (28°F)
Dewpoint: -3.0°C (27°F) [RH = 93%]
Pressure (altimeter): 29.90 inches Hg (1012.6 mb)
Winds: from the NNW (330 degrees) at 7 MPH (6 knots; 3.1 m/s)
Visibility: 2.00 miles (3.22 km)
Ceiling: 300 feet AGL
Clouds: broken clouds at 300 feet AGL
overcast cloud deck at 800 feet AGL
Weather: -SN  (light snow)

METAR text: KMNH 300256Z AUTO 33006KT 2 1/2SM -SN BKN003 OVC008 M02/M02 A2989 RMK AO2 P0001
Conditions at: KMNH (MONUMENT/ELBERT , CO, US) observed 0256 UTC 30 April 2016
Temperature: -2.0°C (28°F)
Dewpoint: -2.0°C (28°F) [RH = 100%]
Pressure (altimeter): 29.89 inches Hg (1012.3 mb)
Winds: from the NNW (330 degrees) at 7 MPH (6 knots; 3.1 m/s)
Visibility: 2.50 miles (4.02 km)
Ceiling: 300 feet AGL
Clouds: broken clouds at 300 feet AGL
overcast cloud deck at 800 feet AGL
Weather: -SN  (light snow)

METAR text: KMNH 300236Z AUTO 33004KT 1 3/4SM -SN OVC008 M02/M03 A2988 RMK AO2
Conditions at: KMNH (MONUMENT/ELBERT , CO, US) observed 0236 UTC 30 April 2016
Temperature: -2.0°C (28°F)
Dewpoint: -3.0°C (27°F) [RH = 93%]
Pressure (altimeter): 29.88 inches Hg (1011.9 mb)
Winds: from the NNW (330 degrees) at 5 MPH (4 knots; 2.1 m/s)
Visibility: 1.75 miles (2.82 km)
Ceiling: 800 feet AGL
Clouds: overcast cloud deck at 800 feet AGL
Weather: -SN  (light snow)

METAR text: KMNH 300216Z AUTO 35004KT 2 1/2SM -SN SCT003 OVC008 M02/M03 A2988 RMK AO2
Conditions at: KMNH (MONUMENT/ELBERT , CO, US) observed 0216 UTC 30 April 2016
Temperature: -2.0°C (28°F)
Dewpoint: -3.0°C (27°F) [RH = 93%]
Pressure (altimeter): 29.88 inches Hg (1011.9 mb)
Winds: from the N (350 degrees) at 5 MPH (4 knots; 2.1 m/s)
Visibility: 2.50 miles (4.02 km)
Ceiling: 800 feet AGL
Clouds: scattered clouds at 300 feet AGL
overcast cloud deck at 800 feet AGL
Weather: -SN  (light snow)

METAR text: KMNH 300156Z AUTO 36005KT 2SM -SN BKN003 OVC008 M02/M03 A2988 RMK AO2 P0001
Conditions at: KMNH (MONUMENT/ELBERT , CO, US) observed 0156 UTC 30 April 2016
Temperature: -2.0°C (28°F)
Dewpoint: -3.0°C (27°F) [RH = 93%]
Pressure (altimeter): 29.88 inches Hg (1011.9 mb)
Winds: from the N (360 degrees) at 6 MPH (5 knots; 2.6 m/s)
Visibility: 2.00 miles (3.22 km)
Ceiling: 300 feet AGL
Clouds: broken clouds at 300 feet AGL
overcast cloud deck at 800 feet AGL
Weather: -SN  (light snow)

METAR text: KMNH 300136Z AUTO 36005KT 2 1/2SM -SN SCT003 OVC009 M02/M02 A2989 RMK AO2 P0001
Conditions at: KMNH (MONUMENT/ELBERT , CO, US) observed 0136 UTC 30 April 2016
Temperature: -2.0°C (28°F)
Dewpoint: -2.0°C (28°F) [RH = 100%]
Pressure (altimeter): 29.89 inches Hg (1012.3 mb)
Winds: from the N (360 degrees) at 6 MPH (5 knots; 2.6 m/s)
Visibility: 2.50 miles (4.02 km)
Ceiling: 900 feet AGL
Clouds: scattered clouds at 300 feet AGL
overcast cloud deck at 900 feet AGL
Weather: -SN  (light snow)

METAR text: KMNH 300116Z AUTO 01006KT 1 1/2SM -SN BKN005 OVC011 M02/M02 A2989 RMK AO2
Conditions at: KMNH (MONUMENT/ELBERT , CO, US) observed 0116 UTC 30 April 2016
Temperature: -2.0°C (28°F)
Dewpoint: -2.0°C (28°F) [RH = 100%]
Pressure (altimeter): 29.89 inches Hg (1012.3 mb)
Winds: from the N (10 degrees) at 7 MPH (6 knots; 3.1 m/s)
Visibility: 1.50 miles (2.41 km)
Ceiling: 500 feet AGL
Clouds: broken clouds at 500 feet AGL
overcast cloud deck at 1100 feet AGL
Weather: -SN  (light snow)

METAR text: KMNH 300056Z AUTO 36008KT 1 1/2SM -SN BKN004 OVC009 M02/M02 A2988 RMK AO2 P0001
Conditions at: KMNH (MONUMENT/ELBERT , CO, US) observed 0056 UTC 30 April 2016
Temperature: -2.0°C (28°F)
Dewpoint: -2.0°C (28°F) [RH = 100%]
Pressure (altimeter): 29.88 inches Hg (1011.9 mb)
Winds: from the N (360 degrees) at 9 MPH (8 knots; 4.2 m/s)
Visibility: 1.50 miles (2.41 km)
Ceiling: 400 feet AGL
Clouds: broken clouds at 400 feet AGL
overcast cloud deck at 900 feet AGL
Weather: -SN  (light snow)

METAR text: KMNH 300036Z AUTO 36007KT 1 3/4SM -SN BKN004 OVC009 M02/M02 A2988 RMK AO2 P0001
Conditions at: KMNH (MONUMENT/ELBERT , CO, US) observed 0036 UTC 30 April 2016
Temperature: -2.0°C (28°F)
Dewpoint: -2.0°C (28°F) [RH = 100%]
Pressure (altimeter): 29.88 inches Hg (1011.9 mb)
Winds: from the N (360 degrees) at 8 MPH (7 knots; 3.6 m/s)
Visibility: 1.75 miles (2.82 km)
Ceiling: 400 feet AGL
Clouds: broken clouds at 400 feet AGL
overcast cloud deck at 900 feet AGL
Weather: -SN  (light snow)

METAR text: KMNH 300016Z AUTO 36006KT 3/4SM -SN OVC004 M02/M02 A2989 RMK AO2 P0001
Conditions at: KMNH (MONUMENT/ELBERT , CO, US) observed 0016 UTC 30 April 2016
Temperature: -2.0°C (28°F)
Dewpoint: -2.0°C (28°F) [RH = 100%]
Pressure (altimeter): 29.89 inches Hg (1012.3 mb)
Winds: from the N (360 degrees) at 7 MPH (6 knots; 3.1 m/s)
Visibility: 0.75 miles (1.21 km)
Ceiling: 400 feet AGL
Clouds: overcast cloud deck at 400 feet AGL
Weather: -SN  (light snow)

METAR text: KMNH 292356Z AUTO 36007KT 1 1/4SM -SN OVC006 M02/M02 A2989 RMK AO2 P0001
Conditions at: KMNH (MONUMENT/ELBERT , CO, US) observed 2356 UTC 29 April 2016
Temperature: -2.0°C (28°F)
Dewpoint: -2.0°C (28°F) [RH = 100%]
Pressure (altimeter): 29.89 inches Hg (1012.3 mb)
Winds: from the N (360 degrees) at 8 MPH (7 knots; 3.6 m/s)
Visibility: 1.25 miles (2.01 km)
Ceiling: 600 feet AGL
Clouds: overcast cloud deck at 600 feet AGL
Weather: -SN  (light snow)

METAR text: KMNH 292336Z AUTO 36008KT 3/4SM -SN OVC006 M02/M02 A2989 RMK AO2 P0001
Conditions at: KMNH (MONUMENT/ELBERT , CO, US) observed 2336 UTC 29 April 2016
Temperature: -2.0°C (28°F)
Dewpoint: -2.0°C (28°F) [RH = 100%]
Pressure (altimeter): 29.89 inches Hg (1012.3 mb)
Winds: from the N (360 degrees) at 9 MPH (8 knots; 4.2 m/s)
Visibility: 0.75 miles (1.21 km)
Ceiling: 600 feet AGL
Clouds: overcast cloud deck at 600 feet AGL
Weather: -SN  (light snow)

METAR text: KMNH 292316Z AUTO 35009KT 1 1/4SM -SN BKN003 OVC008 M02/M02 A2988 RMK AO2
Conditions at: KMNH (MONUMENT/ELBERT , CO, US) observed 2316 UTC 29 April 2016
Temperature: -2.0°C (28°F)
Dewpoint: -2.0°C (28°F) [RH = 100%]
Pressure (altimeter): 29.88 inches Hg (1011.9 mb)
Winds: from the N (350 degrees) at 10 MPH (9 knots; 4.7 m/s)
Visibility: 1.25 miles (2.01 km)
Ceiling: 300 feet AGL
Clouds: broken clouds at 300 feet AGL
overcast cloud deck at 800 feet AGL
Weather: -SN  (light snow)

METAR text: KMNH 292256Z AUTO 35009KT 1 1/2SM -SN BKN003 OVC009 M01/M02 A2988 RMK AO2
Conditions at: KMNH (MONUMENT/ELBERT , CO, US) observed 2256 UTC 29 April 2016
Temperature: -1.0°C (30°F)
Dewpoint: -2.0°C (28°F) [RH = 93%]
Pressure (altimeter): 29.88 inches Hg (1011.9 mb)
Winds: from the N (350 degrees) at 10 MPH (9 knots; 4.7 m/s)
Visibility: 1.50 miles (2.41 km)
Ceiling: 300 feet AGL
Clouds: broken clouds at 300 feet AGL
overcast cloud deck at 900 feet AGL
Weather: -SN  (light snow)

METAR text: KMNH 292236Z AUTO 36008KT 1 1/2SM -SN BKN003 OVC009 M01/M03 A2988 RMK AO2
Conditions at: KMNH (MONUMENT/ELBERT , CO, US) observed 2236 UTC 29 April 2016
Temperature: -1.0°C (30°F)
Dewpoint: -3.0°C (27°F) [RH = 86%]
Pressure (altimeter): 29.88 inches Hg (1011.9 mb)
Winds: from the N (360 degrees) at 9 MPH (8 knots; 4.2 m/s)
Visibility: 1.50 miles (2.41 km)
Ceiling: 300 feet AGL
Clouds: broken clouds at 300 feet AGL
overcast cloud deck at 900 feet AGL
Weather: -SN  (light snow)

METAR text: KMNH 292216Z AUTO 36006KT 1 3/4SM -SN OVC005 M01/M02 A2988 RMK AO2
Conditions at: KMNH (MONUMENT/ELBERT , CO, US) observed 2216 UTC 29 April 2016
Temperature: -1.0°C (30°F)
Dewpoint: -2.0°C (28°F) [RH = 93%]
Pressure (altimeter): 29.88 inches Hg (1011.9 mb)
Winds: from the N (360 degrees) at 7 MPH (6 knots; 3.1 m/s)
Visibility: 1.75 miles (2.82 km)
Ceiling: 500 feet AGL
Clouds: overcast cloud deck at 500 feet AGL
Weather: -SN  (light snow)

METAR text: KMNH 292155Z AUTO 01006KT 1 3/4SM -SN OVC005 M01/M02 A2990 RMK AO2 P0001
Conditions at: KMNH (MONUMENT/ELBERT , CO, US) observed 2155 UTC 29 April 2016
Temperature: -1.0°C (30°F)
Dewpoint: -2.0°C (28°F) [RH = 93%]
Pressure (altimeter): 29.90 inches Hg (1012.6 mb)
Winds: from the N (10 degrees) at 7 MPH (6 knots; 3.1 m/s)
Visibility: 1.75 miles (2.82 km)
Ceiling: 500 feet AGL
Clouds: overcast cloud deck at 500 feet AGL
Weather: -SN  (light snow)

METAR text: KMNH 292136Z AUTO 02006KT 1 1/4SM -SN OVC007 M01/M02 A2990 RMK AO2
Conditions at: KMNH (MONUMENT/ELBERT , CO, US) observed 2136 UTC 29 April 2016
Temperature: -1.0°C (30°F)
Dewpoint: -2.0°C (28°F) [RH = 93%]
Pressure (altimeter): 29.90 inches Hg (1012.6 mb)
Winds: from the NNE (20 degrees) at 7 MPH (6 knots; 3.1 m/s)
Visibility: 1.25 miles (2.01 km)
Ceiling: 700 feet AGL
Clouds: overcast cloud deck at 700 feet AGL
Weather: -SN  (light snow)

METAR text: KMNH 292116Z AUTO 03007KT 1 1/2SM -SN BKN003 OVC009 M01/M02 A2990 RMK AO2
Conditions at: KMNH (MONUMENT/ELBERT , CO, US) observed 2116 UTC 29 April 2016
Temperature: -1.0°C (30°F)
Dewpoint: -2.0°C (28°F) [RH = 93%]
Pressure (altimeter): 29.90 inches Hg (1012.6 mb)
Winds: from the NNE (30 degrees) at 8 MPH (7 knots; 3.6 m/s)
Visibility: 1.50 miles (2.41 km)
Ceiling: 300 feet AGL
Clouds: broken clouds at 300 feet AGL
overcast cloud deck at 900 feet AGL
Weather: -SN  (light snow)

METAR text: KMNH 292055Z AUTO 03008KT 1SM -SN OVC003 M01/M02 A2990 RMK AO2 P0002
Conditions at: KMNH (MONUMENT/ELBERT , CO, US) observed 2055 UTC 29 April 2016
Temperature: -1.0°C (30°F)
Dewpoint: -2.0°C (28°F) [RH = 93%]
Pressure (altimeter): 29.90 inches Hg (1012.6 mb)
Winds: from the NNE (30 degrees) at 9 MPH (8 knots; 4.2 m/s)
Visibility: 1.00 miles (1.61 km)
Ceiling: 300 feet AGL
Clouds: overcast cloud deck at 300 feet AGL
Weather: -SN  (light snow)

METAR text: KMNH 292036Z AUTO 03007KT 1 1/2SM -SN OVC003 M01/M02 A2991 RMK AO2 P0002
Conditions at: KMNH (MONUMENT/ELBERT , CO, US) observed 2036 UTC 29 April 2016
Temperature: -1.0°C (30°F)
Dewpoint: -2.0°C (28°F) [RH = 93%]
Pressure (altimeter): 29.91 inches Hg (1013.0 mb)
Winds: from the NNE (30 degrees) at 8 MPH (7 knots; 3.6 m/s)
Visibility: 1.50 miles (2.41 km)
Ceiling: 300 feet AGL
Clouds: overcast cloud deck at 300 feet AGL
Weather: -SN  (light snow)

METAR text: KMNH 292016Z AUTO 04004KT 1SM -SN OVC003 00/M02 A2991 RMK AO2 P0001
Conditions at: KMNH (MONUMENT/ELBERT , CO, US) observed 2016 UTC 29 April 2016
Temperature: 0.0°C (32°F)
Dewpoint: -2.0°C (28°F) [RH = 86%]
Pressure (altimeter): 29.91 inches Hg (1013.0 mb)
Winds: from the NE (40 degrees) at 5 MPH (4 knots; 2.1 m/s)
Visibility: 1.00 miles (1.61 km)
Ceiling: 300 feet AGL
Clouds: overcast cloud deck at 300 feet AGL
Weather: -SN  (light snow)

METAR text: KMNH 291956Z AUTO 03007KT 1 1/4SM -SN OVC003 00/M02 A2991 RMK AO2 P0004
Conditions at: KMNH (MONUMENT/ELBERT , CO, US) observed 1956 UTC 29 April 2016
Temperature: 0.0°C (32°F)
Dewpoint: -2.0°C (28°F) [RH = 86%]
Pressure (altimeter): 29.91 inches Hg (1013.0 mb)
Winds: from the NNE (30 degrees) at 8 MPH (7 knots; 3.6 m/s)
Visibility: 1.25 miles (2.01 km)
Ceiling: 300 feet AGL
Clouds: overcast cloud deck at 300 feet AGL
Weather: -SN  (light snow)

METAR text: KMNH 291936Z AUTO 03007KT 1/2SM SN OVC003 00/M01 A2991 RMK AO2 P0003
Conditions at: KMNH (MONUMENT/ELBERT , CO, US) observed 1936 UTC 29 April 2016
Temperature: 0.0°C (32°F)
Dewpoint: -1.0°C (30°F) [RH = 93%]
Pressure (altimeter): 29.91 inches Hg (1013.0 mb)
Winds: from the NNE (30 degrees) at 8 MPH (7 knots; 3.6 m/s)
Visibility: 0.50 miles (0.80 km)
Ceiling: 300 feet AGL
Clouds: overcast cloud deck at 300 feet AGL
Weather: SN  (snow)

METAR text: KMNH 291916Z AUTO 02006KT 3/4SM -SN OVC003 00/M01 A2991 RMK AO2 P0002
Conditions at: KMNH (MONUMENT/ELBERT , CO, US) observed 1916 UTC 29 April 2016
Temperature: 0.0°C (32°F)
Dewpoint: -1.0°C (30°F) [RH = 93%]
Pressure (altimeter): 29.91 inches Hg (1013.0 mb)
Winds: from the NNE (20 degrees) at 7 MPH (6 knots; 3.1 m/s)
Visibility: 0.75 miles (1.21 km)
Ceiling: 300 feet AGL
Clouds: overcast cloud deck at 300 feet AGL
Weather: -SN  (light snow)

METAR text: KMNH 291855Z AUTO 00000KT 1/2SM -SN OVC003 00/M01 A2991 RMK AO2 P0007
Conditions at: KMNH (MONUMENT/ELBERT , CO, US) observed 1855 UTC 29 April 2016
Temperature: 0.0°C (32°F)
Dewpoint: -1.0°C (30°F) [RH = 93%]
Pressure (altimeter): 29.91 inches Hg (1013.0 mb)
Winds: calm
Visibility: 0.50 miles (0.80 km)
Ceiling: 300 feet AGL
Clouds: overcast cloud deck at 300 feet AGL
Weather: -SN  (light snow)

METAR text: KMNH 291836Z AUTO 36006KT 1/2SM -SN OVC003 00/M01 A2991 RMK AO2 P0005
Conditions at: KMNH (MONUMENT/ELBERT , CO, US) observed 1836 UTC 29 April 2016
Temperature: 0.0°C (32°F)
Dewpoint: -1.0°C (30°F) [RH = 93%]
Pressure (altimeter): 29.91 inches Hg (1013.0 mb)
Winds: from the N (360 degrees) at 7 MPH (6 knots; 3.1 m/s)
Visibility: 0.50 miles (0.80 km)
Ceiling: 300 feet AGL
Clouds: overcast cloud deck at 300 feet AGL
Weather: -SN  (light snow)

METAR text: KMNH 291816Z AUTO 01004KT 1/2SM SN OVC003 00/M01 A2991 RMK AO2 P0002
Conditions at: KMNH (MONUMENT/ELBERT , CO, US) observed 1816 UTC 29 April 2016
Temperature: 0.0°C (32°F)
Dewpoint: -1.0°C (30°F) [RH = 93%]
Pressure (altimeter): 29.91 inches Hg (1013.0 mb)
Winds: from the N (10 degrees) at 5 MPH (4 knots; 2.1 m/s)
Visibility: 0.50 miles (0.80 km)
Ceiling: 300 feet AGL
Clouds: overcast cloud deck at 300 feet AGL
Weather: SN  (snow)